Saturday, November 18, 2017, 5:57 PM EST
Back to Local

KIZG, Fryeburg Eastern Slopes Rgnl

Location: Fryeburg, ME, United States Lat: 43.983
Local Time: 5:57 PM EST (22:57 GMT) Lon: -70.95
Time Zone: US/Eastern Elev: 452 ft

Show me the last for .
Show Decoded

2017-11-18 16:54 METAR KIZG 182154Z AUTO 00000KT 10SM OVC080 03/M07 A2970 RMK AO2 SLP065
                 T00281072 =
2017-11-18 15:54 METAR KIZG 182054Z AUTO 10003KT 10SM OVC110 03/M07 A2972 RMK AO2 SLP072
                 T00281072 56024 =
2017-11-18 14:54 METAR KIZG 181954Z AUTO 10005KT 10SM FEW085 OVC110 04/M09 A2974 RMK AO2 SLP077
                 T00391089 =
2017-11-18 13:54 METAR KIZG 181854Z AUTO 00000KT 10SM OVC110 04/M10 A2976 RMK AO2 SLP082
                 T00441100 =
2017-11-18 12:54 METAR KIZG 181754Z AUTO 19004KT 10SM CLR 04/M09 A2980 RMK AO2 SLP096 T00441089
                 10044 21094 56035 =
2017-11-18 11:54 METAR KIZG 181654Z AUTO 10003KT 10SM CLR 04/M08 A2982 RMK AO2 SLP104 T00391078 =
2017-11-18 10:54 METAR KIZG 181554Z AUTO 12004KT 10SM CLR 02/M07 A2987 RMK AO2 SLP121 T00221067 =
2017-11-18 09:54 METAR KIZG 181454Z AUTO 10004KT 10SM CLR 00/M04 A2990 RMK AO2 SLP133 T00001044
                 58008 =
2017-11-18 08:54 METAR KIZG 181354Z AUTO 00000KT 10SM CLR M03/M04 A2991 RMK AO2 SLP137 T10331044
                 =
2017-11-18 07:54 METAR KIZG 181254Z AUTO 00000KT 10SM CLR M06/M07 A2993 RMK AO2 SLP142 T10561067
                 =
2017-11-18 06:54 METAR KIZG 181154Z AUTO 23003KT 10SM CLR M09/M10 A2992 RMK AO2 SLP142 I6000
                 T10941100 11072 21094 51004 =
2017-11-18 05:54 METAR KIZG 181054Z AUTO 00000KT 10SM CLR M09/M09 A2992 RMK AO2 SLP139 I1000
                 T10891094 =
2017-11-18 04:54 METAR KIZG 180954Z AUTO 00000KT 10SM CLR M08/M08 A2993 RMK AO2 SLP142 I1000
                 T10781083 =
2017-11-18 03:54 METAR KIZG 180854Z AUTO 00000KT 10SM CLR M08/M09 A2991 RMK AO2 SLP137 I1000
                 I3000 T10831094 58012 =
2017-11-18 02:54 METAR KIZG 180754Z AUTO 00000KT 10SM CLR M08/M09 A2994 RMK AO2 SLP145 I1000
                 T10831089 =
2017-11-18 01:54 METAR KIZG 180654Z AUTO 00000KT 10SM CLR M09/M10 A2995 RMK AO2 SLP150 I1000
                 T10891100 =
2017-11-18 00:54 METAR KIZG 180554Z AUTO 00000KT 10SM CLR M09/M09 A2995 RMK AO2 SLP148 I1000
                 I6001 T10891094 11039 21094 53004 =
2017-11-17 23:54 METAR KIZG 180454Z AUTO 00000KT 10SM CLR M08/M09 A2994 RMK AO2 SLP144 T10831089
                 400331089 =
2017-11-17 22:54 METAR KIZG 180354Z AUTO 00000KT 10SM CLR M08/M08 A2994 RMK AO2 SLP144 I1001
                 T10781083 =
2017-11-17 21:54 METAR KIZG 180254Z AUTO 18003KT 10SM CLR M07/M07 A2994 RMK AO2 SLP144 T10671072
                 53012 =
2017-11-17 20:54 METAR KIZG 180154Z AUTO 00000KT 10SM CLR M07/M07 A2992 RMK AO2 SLP139 T10671072
                 =
2017-11-17 19:54 METAR KIZG 180054Z AUTO 00000KT 10SM CLR M05/M07 A2991 RMK AO2 SLP134 T10501072
                 =
2017-11-17 18:54 METAR KIZG 172354Z AUTO 18003KT 10SM CLR M04/M07 A2990 RMK AO2 SLP131 T10441067
                 10033 21050 51016 =

Support USWX by starting your Amazon purchase here.